CheckWX is a tool to help pilots better visualize weather data.  It is not intended as a substitute for an official pre-flight weather briefing.

12:22:19 UTC

KSZT METAR
Sandpoint Airport
Sandpoint, Idaho, USA
Current

7 mins ago

KSZT 181215Z AUTO 00000KT 10SM M13/M18 A3030 RMK AO2
Observed
Feb-18 @ 12:15 UTC
Visibility
10 SM
Temperature
-13°C / 9°F
Dewpoint
-18°C / -0°F
Humidity
66%
Altimeter
30.3" Hg
Pressure
1026.12 hPa
Previous

27 mins ago

KSZT 181155Z AUTO 00000KT 10SM M13/M18 A3029 RMK AO2
Observed
Feb-18 @ 11:55 UTC
Visibility
10 SM
Temperature
-13°C / 9°F
Dewpoint
-18°C / -0°F
Humidity
66%
Altimeter
30.29" Hg
Pressure
1025.72 hPa
Previous

47 mins ago

KSZT 181135Z AUTO 29003KT 10SM M12/M18 A3029 RMK AO2
Observed
Feb-18 @ 11:35 UTC
Wind
  • 290° at 3 KTS
Visibility
10 SM
Temperature
-12°C / 10°F
Dewpoint
-18°C / -0°F
Humidity
61%
Altimeter
30.29" Hg
Pressure
1025.72 hPa